createdAt,value
2023-04-25T00:01:48.006Z,99.90
2023-04-25T00:04:15.157Z,99.90
2023-04-25T00:06:44.446Z,99.90
2023-04-25T00:09:12.402Z,99.90
2023-04-25T00:11:39.449Z,99.90
2023-04-25T00:14:07.591Z,99.90
2023-04-25T00:16:35.946Z,99.90
2023-04-25T00:19:05.263Z,99.90
2023-04-25T00:21:33.761Z,99.90
2023-04-25T00:24:01.930Z,99.90
2023-04-25T00:26:29.057Z,99.90
2023-04-25T00:28:56.675Z,99.90
2023-04-25T00:31:23.613Z,99.90
2023-04-25T00:33:50.890Z,99.90
2023-04-25T00:36:19.104Z,99.90
2023-04-25T00:38:45.900Z,99.90
2023-04-25T00:41:13.136Z,99.90
2023-04-25T00:43:48.188Z,99.90
2023-04-25T00:46:16.164Z,99.90
2023-04-25T00:48:43.094Z,99.90
2023-04-25T00:51:16.794Z,99.90
2023-04-25T00:53:43.922Z,99.90
2023-04-25T00:56:11.037Z,99.90
2023-04-25T00:58:41.237Z,99.90
2023-04-25T01:01:09.147Z,99.90
2023-04-25T01:03:41.976Z,99.90
2023-04-25T01:06:12.152Z,99.90
2023-04-25T01:08:40.355Z,99.90
2023-04-25T01:11:07.435Z,99.90
2023-04-25T01:13:36.132Z,99.90
2023-04-25T01:16:04.771Z,99.90
2023-04-25T01:18:32.791Z,99.90
2023-04-25T01:21:09.595Z,99.90
2023-04-25T01:23:37.723Z,99.90
2023-04-25T01:26:04.757Z,99.90
2023-04-25T01:28:35.460Z,99.90
2023-04-25T01:31:02.743Z,99.90
2023-04-25T01:33:30.743Z,99.90
2023-04-25T01:35:57.593Z,99.90
2023-04-25T01:38:24.731Z,99.90
2023-04-25T01:40:53.177Z,99.90
2023-04-25T01:43:20.245Z,99.90
2023-04-25T01:45:47.478Z,99.90
2023-04-25T01:48:15.344Z,99.90
2023-04-25T01:50:43.788Z,99.90
2023-04-25T01:53:12.952Z,99.90
2023-04-25T01:55:39.804Z,99.90
2023-04-25T01:58:10.651Z,99.90
2023-04-25T02:00:41.756Z,99.90
2023-04-25T02:03:09.589Z,99.90
2023-04-25T02:05:40.510Z,99.90
2023-04-25T02:08:09.050Z,99.90
2023-04-25T02:10:36.398Z,99.90
2023-04-25T02:13:05.369Z,99.90
2023-04-25T02:15:33.468Z,99.90
2023-04-25T02:18:01.625Z,99.90
2023-04-25T02:20:30.978Z,99.90
2023-04-25T02:22:57.780Z,99.90
2023-04-25T02:25:24.943Z,99.90
2023-04-25T02:27:52.399Z,99.90
2023-04-25T02:30:22.552Z,99.90
2023-04-25T02:32:49.784Z,99.90
2023-04-25T02:35:18.164Z,99.90
2023-04-25T02:37:44.970Z,99.90
2023-04-25T02:40:12.208Z,99.90
2023-04-25T02:42:40.416Z,99.90
2023-04-25T02:45:07.708Z,99.90
2023-04-25T02:47:36.796Z,99.90
2023-04-25T02:50:04.326Z,99.90
2023-04-25T02:52:31.354Z,99.90
2023-04-25T02:54:58.322Z,99.90
2023-04-25T02:57:26.233Z,99.90
2023-04-25T02:59:53.236Z,99.90
2023-04-25T03:02:20.395Z,99.90
2023-04-25T03:04:49.039Z,99.90
2023-04-25T03:07:16.040Z,99.90
2023-04-25T03:09:43.071Z,99.90
2023-04-25T03:12:10.335Z,99.90
2023-04-25T03:14:37.199Z,99.90
2023-04-25T03:17:04.228Z,99.90
2023-04-25T03:19:31.483Z,99.90
2023-04-25T03:21:59.566Z,99.90
2023-04-25T03:24:28.065Z,99.90
2023-04-25T03:26:54.900Z,99.90
2023-04-25T03:29:25.372Z,99.90
2023-04-25T03:31:52.379Z,99.90
2023-04-25T03:34:19.312Z,99.90
2023-04-25T03:36:49.289Z,99.90
2023-04-25T03:39:16.811Z,99.90
2023-04-25T03:41:44.581Z,99.90
2023-04-25T03:44:13.654Z,99.90
2023-04-25T03:46:41.678Z,99.90
2023-04-25T03:49:08.670Z,99.90
2023-04-25T03:51:35.810Z,99.90
2023-04-25T03:54:02.716Z,99.90
2023-04-25T03:56:29.710Z,99.90
2023-04-25T03:58:57.625Z,99.90
2023-04-25T04:01:24.308Z,99.90
2023-04-25T04:03:52.363Z,99.90
2023-04-25T04:06:21.692Z,99.90
2023-04-25T04:08:49.525Z,99.90
2023-04-25T04:11:16.296Z,99.90
2023-04-25T04:13:43.137Z,99.90
2023-04-25T04:16:10.681Z,99.90
2023-04-25T04:18:37.897Z,99.90
2023-04-25T04:21:06.090Z,99.90
2023-04-25T04:23:32.974Z,99.90
2023-04-25T04:26:00.791Z,99.90
2023-04-25T04:28:28.008Z,99.90
2023-04-25T04:30:55.085Z,99.90
2023-04-25T04:33:24.502Z,99.90
2023-04-25T04:35:53.290Z,99.90
2023-04-25T04:38:20.718Z,99.90
2023-04-25T04:40:48.681Z,99.90
2023-04-25T04:43:18.077Z,99.90
2023-04-25T04:45:45.504Z,99.90
2023-04-25T04:48:15.066Z,99.90
2023-04-25T04:50:46.785Z,99.90
2023-04-25T04:53:14.862Z,99.90
2023-04-25T04:55:42.912Z,99.90
2023-04-25T04:58:10.048Z,99.90
2023-04-25T05:00:36.775Z,99.90
2023-04-25T05:03:04.043Z,99.90
2023-04-25T05:05:31.219Z,99.90
2023-04-25T05:07:58.250Z,99.90
2023-04-25T05:10:27.116Z,99.90
2023-04-25T05:12:54.072Z,99.90
2023-04-25T05:15:21.861Z,99.90
2023-04-25T05:17:49.860Z,99.90
2023-04-25T05:20:19.660Z,99.90
2023-04-25T05:22:46.685Z,99.90
2023-04-25T05:25:14.629Z,99.90
2023-04-25T05:27:41.649Z,99.90
2023-04-25T05:30:10.543Z,99.90
2023-04-25T05:32:37.661Z,99.90
2023-04-25T05:35:05.164Z,99.90
2023-04-25T05:37:33.708Z,99.90
2023-04-25T05:40:01.886Z,99.90
2023-04-25T05:42:28.926Z,99.90
2023-04-25T05:44:58.722Z,99.90
2023-04-25T05:47:25.929Z,99.90
2023-04-25T05:49:53.101Z,99.90
2023-04-25T05:52:21.102Z,99.90
2023-04-25T05:54:49.060Z,99.90
2023-04-25T05:57:24.713Z,99.90
2023-04-25T05:59:54.592Z,99.90
2023-04-25T06:02:22.453Z,99.90
2023-04-25T06:04:52.144Z,99.90
2023-04-25T06:07:20.942Z,99.90
2023-04-25T06:09:47.782Z,99.90
2023-04-25T06:12:14.558Z,99.90
2023-04-25T06:14:42.408Z,99.90
2023-04-25T06:17:09.486Z,99.90
2023-04-25T06:19:39.228Z,99.90
2023-04-25T06:22:06.290Z,99.90
2023-04-25T06:24:33.235Z,99.90
2023-04-25T06:27:00.881Z,99.90
2023-04-25T06:29:27.668Z,99.90
2023-04-25T06:31:54.805Z,99.90
2023-04-25T06:34:21.844Z,99.90
2023-04-25T06:36:48.919Z,99.90
2023-04-25T06:39:15.933Z,99.90
2023-04-25T06:41:43.027Z,99.90
2023-04-25T06:44:10.154Z,99.90
2023-04-25T06:46:37.339Z,99.90
2023-04-25T06:49:04.170Z,99.90
2023-04-25T06:51:31.756Z,99.90
2023-04-25T06:53:58.747Z,99.90
2023-04-25T06:56:26.484Z,99.90
2023-04-25T06:58:53.723Z,99.90
2023-04-25T07:01:20.624Z,99.90
2023-04-25T07:03:47.664Z,99.90
2023-04-25T07:06:14.767Z,99.90
2023-04-25T07:08:41.811Z,99.90
2023-04-25T07:11:08.795Z,99.90
2023-04-25T07:13:35.910Z,99.90
2023-04-25T07:16:04.090Z,99.90
2023-04-25T07:18:31.995Z,99.90
2023-04-25T07:20:59.048Z,99.90
2023-04-25T07:23:26.044Z,99.90
2023-04-25T07:25:53.142Z,99.90
2023-04-25T07:28:20.200Z,99.90
2023-04-25T07:30:47.267Z,99.90
2023-04-25T07:33:15.136Z,99.90
2023-04-25T07:35:42.191Z,99.90
2023-04-25T07:38:09.608Z,99.90
2023-04-25T07:40:36.749Z,99.90
2023-04-25T07:43:03.760Z,99.90
2023-04-25T07:45:30.804Z,99.90
2023-04-25T07:47:57.856Z,99.90
2023-04-25T07:50:24.994Z,99.90
2023-04-25T07:52:51.945Z,99.90
2023-04-25T07:55:19.009Z,99.90
2023-04-25T07:57:46.037Z,99.90
2023-04-25T08:00:13.695Z,99.90
2023-04-25T08:02:40.745Z,99.90
2023-04-25T08:05:09.480Z,99.90
2023-04-25T08:07:36.832Z,99.90
2023-04-25T08:10:03.976Z,99.90
2023-04-25T08:12:30.810Z,99.90
2023-04-25T08:14:57.839Z,99.90
2023-04-25T08:17:24.866Z,99.90
2023-04-25T08:19:51.910Z,99.90
2023-04-25T08:22:18.978Z,99.90
2023-04-25T08:24:45.986Z,99.90
2023-04-25T08:27:14.014Z,99.90
2023-04-25T08:29:40.781Z,99.90
2023-04-25T08:32:07.555Z,99.90
2023-04-25T08:34:34.622Z,99.90
2023-04-25T08:37:01.698Z,99.90
2023-04-25T08:39:29.113Z,99.90
2023-04-25T08:41:57.163Z,99.90
2023-04-25T08:44:25.621Z,99.90
2023-04-25T08:46:54.141Z,99.90
2023-04-25T08:49:21.528Z,99.90
2023-04-25T08:51:48.448Z,99.90
2023-04-25T08:54:30.803Z,99.90
2023-04-25T08:57:05.172Z,99.90
2023-04-25T08:59:33.189Z,99.90
2023-04-25T09:02:00.391Z,99.90
2023-04-25T09:04:27.438Z,96.00
2023-04-25T09:06:54.382Z,94.40
2023-04-25T09:09:22.337Z,94.60
2023-04-25T09:11:49.763Z,94.20
2023-04-25T09:14:22.177Z,93.40
2023-04-25T09:17:08.895Z,93.10
2023-04-25T09:19:41.505Z,94.20
2023-04-25T09:22:09.440Z,96.10
2023-04-25T09:24:42.446Z,99.90
2023-04-25T09:27:12.060Z,99.90
2023-04-25T09:29:40.505Z,99.90
2023-04-25T09:32:25.265Z,99.90
2023-04-25T09:34:57.149Z,99.90
2023-04-25T09:37:25.496Z,99.90
2023-04-25T09:40:01.322Z,99.90
2023-04-25T09:42:30.005Z,99.90
2023-04-25T09:44:58.063Z,99.90
2023-04-25T09:47:26.614Z,99.90
2023-04-25T09:49:54.567Z,99.90
2023-04-25T09:52:25.682Z,99.90
2023-04-25T09:54:55.052Z,99.90
2023-04-25T09:57:26.949Z,99.90
2023-04-25T09:59:55.616Z,99.90
2023-04-25T10:02:26.143Z,99.90
2023-04-25T10:04:57.974Z,99.90
2023-04-25T10:07:30.105Z,99.90
2023-04-25T10:10:03.834Z,99.90
2023-04-25T10:12:34.569Z,99.90
2023-04-25T10:15:02.338Z,97.90
2023-04-25T10:17:30.051Z,91.80
2023-04-25T10:19:57.635Z,88.70
2023-04-25T10:22:31.780Z,87.60
2023-04-25T10:24:59.312Z,72.20
2023-04-25T10:27:29.032Z,68.70
2023-04-25T10:30:05.230Z,70.20
2023-04-25T10:32:35.877Z,74.00
2023-04-25T10:35:14.465Z,81.30
2023-04-25T10:37:59.442Z,87.90
2023-04-25T10:40:27.119Z,86.10
2023-04-25T10:42:58.060Z,87.20
2023-04-25T10:45:25.041Z,94.10
2023-04-25T10:47:55.670Z,95.40
2023-04-25T10:50:39.670Z,97.40
2023-04-25T10:53:17.021Z,99.90
2023-04-25T10:55:54.063Z,99.90
2023-04-25T10:58:23.761Z,99.90
2023-04-25T11:03:22.623Z,99.90
2023-04-25T11:05:57.744Z,99.90
2023-04-25T11:09:04.124Z,99.90
2023-04-25T11:11:31.355Z,99.90
2023-04-25T11:13:59.193Z,99.90
2023-04-25T11:16:28.421Z,99.90
2023-04-25T11:18:58.418Z,99.90
2023-04-25T11:21:28.722Z,99.90
2023-04-25T11:23:57.551Z,99.90
2023-04-25T11:26:25.975Z,99.90
2023-04-25T11:28:53.006Z,99.90
2023-04-25T11:31:23.467Z,99.90
2023-04-25T11:33:50.701Z,99.90
2023-04-25T11:36:17.914Z,99.90
2023-04-25T11:38:45.267Z,99.90
2023-04-25T11:41:12.913Z,99.90
2023-04-25T11:43:40.895Z,99.90
2023-04-25T11:46:09.957Z,99.90
2023-04-25T11:48:43.709Z,99.90
2023-04-25T11:51:11.317Z,97.30
2023-04-25T11:53:42.517Z,96.30
2023-04-25T11:56:12.881Z,94.80
2023-04-25T11:59:02.178Z,93.80
2023-04-25T12:01:38.247Z,94.90
2023-04-25T12:04:14.829Z,96.70
2023-04-25T12:06:43.545Z,96.20
2023-04-25T12:09:12.438Z,95.30
2023-04-25T12:12:10.757Z,97.30
2023-04-25T12:14:37.781Z,96.30
2023-04-25T12:17:08.731Z,96.20
2023-04-25T12:19:38.321Z,97.10
2023-04-25T12:22:23.508Z,97.00
2023-04-25T12:24:51.080Z,96.00
2023-04-25T12:27:20.169Z,97.00
2023-04-25T12:29:55.525Z,97.00
2023-04-25T12:32:22.570Z,95.00
2023-04-25T12:34:49.407Z,95.20
2023-04-25T12:37:16.695Z,94.60
2023-04-25T12:39:43.541Z,91.00
2023-04-25T12:42:12.895Z,91.00
2023-04-25T12:44:40.944Z,88.70
2023-04-25T12:47:07.843Z,88.20
2023-04-25T12:49:35.052Z,86.00
2023-04-25T12:52:02.072Z,84.70
2023-04-25T12:54:29.122Z,85.70
2023-04-25T12:56:56.437Z,84.50
2023-04-25T12:59:23.423Z,85.70
2023-04-25T13:01:50.527Z,90.30
2023-04-25T13:04:18.710Z,87.50
2023-04-25T13:06:46.196Z,93.20
2023-04-25T13:09:14.458Z,96.80
2023-04-25T13:11:42.316Z,96.50
2023-04-25T13:14:09.172Z,96.00
2023-04-25T13:16:37.272Z,96.40
2023-04-25T13:19:04.179Z,94.90
2023-04-25T13:21:34.103Z,95.00
2023-04-25T13:24:01.205Z,91.20
2023-04-25T13:26:28.119Z,91.90
2023-04-25T13:28:55.181Z,90.80
2023-04-25T13:31:22.374Z,90.30
2023-04-25T13:33:49.892Z,93.50
2023-04-25T13:36:17.137Z,93.70
2023-04-25T13:38:45.901Z,92.40
2023-04-25T13:41:18.575Z,91.60
2023-04-25T13:43:48.336Z,91.60
2023-04-25T13:46:30.229Z,91.90
2023-04-25T13:49:12.394Z,92.40
2023-04-25T13:51:41.024Z,94.70
2023-04-25T13:54:08.544Z,96.20
2023-04-25T13:56:35.885Z,91.20
2023-04-25T13:59:02.711Z,92.40
2023-04-25T14:01:32.029Z,93.20
2023-04-25T14:03:58.913Z,94.00
2023-04-25T14:06:26.280Z,93.50
2023-04-25T14:08:53.475Z,93.70
2023-04-25T14:11:20.513Z,94.60
2023-04-25T14:13:48.586Z,94.90
2023-04-25T14:16:17.122Z,93.40
2023-04-25T14:18:44.009Z,94.20
2023-04-25T14:21:11.714Z,94.20
2023-04-25T14:23:38.618Z,95.00
2023-04-25T14:26:06.196Z,94.50
2023-04-25T14:28:33.132Z,95.40
2023-04-25T14:31:00.189Z,96.30
2023-04-25T14:33:27.137Z,96.20
2023-04-25T14:35:54.243Z,95.80
2023-04-25T14:38:24.183Z,95.50
2023-04-25T14:40:51.541Z,94.90
2023-04-25T14:43:18.666Z,94.70
2023-04-25T14:45:46.096Z,94.60
2023-04-25T14:48:13.393Z,94.40
2023-04-25T14:50:40.824Z,95.20
2023-04-25T14:53:07.744Z,95.10
2023-04-25T14:55:34.608Z,94.60
2023-04-25T14:58:02.118Z,94.00
2023-04-25T15:00:29.209Z,95.30
2023-04-25T15:02:57.173Z,93.90
2023-04-25T15:05:25.717Z,94.70
2023-04-25T15:07:52.563Z,95.40
2023-04-25T15:10:20.515Z,94.90
2023-04-25T15:12:47.992Z,94.90
2023-04-25T15:15:22.490Z,95.90
2023-04-25T15:17:56.489Z,96.00
2023-04-25T15:20:26.484Z,94.90
2023-04-25T15:22:54.913Z,95.60
2023-04-25T15:25:22.743Z,97.00
2023-04-25T15:27:52.635Z,97.50
2023-04-25T15:30:20.514Z,95.80
2023-04-25T15:32:48.312Z,95.40
2023-04-25T15:35:18.485Z,95.30
2023-04-25T15:37:46.219Z,95.10
2023-04-25T15:40:16.304Z,94.90
2023-04-25T15:42:53.347Z,95.40
2023-04-25T15:45:24.100Z,94.30
2023-04-25T15:47:52.993Z,95.70
2023-04-25T15:50:21.150Z,96.00
2023-04-25T15:52:49.982Z,96.70
2023-04-25T15:55:19.064Z,96.20
2023-04-25T15:57:46.013Z,96.70
2023-04-25T16:00:13.582Z,96.30
2023-04-25T16:02:41.772Z,96.80
2023-04-25T16:05:11.463Z,97.70
2023-04-25T16:07:41.849Z,97.90
2023-04-25T16:10:11.372Z,96.90
2023-04-25T16:12:41.224Z,98.00
2023-04-25T16:15:08.836Z,97.40
2023-04-25T16:17:36.051Z,96.40
2023-04-25T16:20:09.709Z,95.70
2023-04-25T16:22:38.649Z,94.70
2023-04-25T16:25:06.376Z,94.90
2023-04-25T16:27:34.706Z,95.20
2023-04-25T16:30:02.374Z,96.80
2023-04-25T16:32:29.243Z,97.00
2023-04-25T16:34:57.552Z,97.60
2023-04-25T16:37:26.002Z,97.70
2023-04-25T16:39:53.606Z,98.10
2023-04-25T16:42:20.680Z,97.90
2023-04-25T16:44:47.713Z,97.40
2023-04-25T16:47:18.716Z,97.30
2023-04-25T16:49:47.127Z,98.10
2023-04-25T16:52:15.089Z,98.00
2023-04-25T16:54:41.953Z,97.80
2023-04-25T16:57:11.096Z,96.70
2023-04-25T16:59:39.226Z,95.80
2023-04-25T17:02:10.688Z,96.10
2023-04-25T17:04:38.834Z,97.10
2023-04-25T17:07:05.836Z,98.40
2023-04-25T17:09:33.724Z,98.10
2023-04-25T17:12:03.031Z,96.70
2023-04-25T17:14:29.821Z,97.40
2023-04-25T17:16:56.935Z,97.40
2023-04-25T17:19:24.800Z,97.10
2023-04-25T17:21:51.839Z,97.10
2023-04-25T17:24:21.126Z,98.20
2023-04-25T17:26:48.968Z,98.90
2023-04-25T17:29:16.333Z,99.90
2023-04-25T17:31:44.224Z,99.90
2023-04-25T17:34:16.492Z,99.90
2023-04-25T17:36:44.742Z,99.90
2023-04-25T17:39:11.793Z,99.90
2023-04-25T17:41:38.795Z,99.90
2023-04-25T17:44:07.950Z,99.90
2023-04-25T17:46:35.000Z,99.90
2023-04-25T17:49:02.047Z,99.90
2023-04-25T17:51:29.109Z,99.90
2023-04-25T17:53:56.155Z,99.90
2023-04-25T17:56:27.019Z,99.90
2023-04-25T17:58:55.090Z,99.90
2023-04-25T18:01:22.549Z,99.90
2023-04-25T18:03:50.495Z,99.90
2023-04-25T18:06:18.273Z,99.90
2023-04-25T18:08:45.887Z,99.90
2023-04-25T18:11:13.123Z,99.90
2023-04-25T18:13:40.704Z,99.90
2023-04-25T18:16:08.004Z,99.90
2023-04-25T18:18:48.773Z,99.90
2023-04-25T18:21:15.705Z,99.90
2023-04-25T18:23:42.863Z,99.90
2023-04-25T18:26:09.856Z,99.90
2023-04-25T18:28:36.911Z,99.90
2023-04-25T18:31:04.356Z,99.90
2023-04-25T18:33:31.706Z,99.90
2023-04-25T18:35:59.848Z,99.90
2023-04-25T18:41:08.374Z,99.90
2023-04-25T18:43:44.837Z,99.90
2023-04-25T18:46:12.061Z,99.90
2023-04-25T18:48:39.057Z,99.90
2023-04-25T18:51:06.194Z,99.90
2023-04-25T18:53:33.339Z,99.90
2023-04-25T18:56:01.017Z,99.90
2023-04-25T18:58:28.226Z,99.90
2023-04-25T19:00:55.313Z,99.90
2023-04-25T19:03:22.791Z,99.90
2023-04-25T19:05:50.150Z,99.90
2023-04-25T19:08:17.115Z,99.90
2023-04-25T19:10:44.316Z,99.90
2023-04-25T19:13:11.236Z,99.90
2023-04-25T19:15:39.402Z,99.90
2023-04-25T19:18:06.621Z,99.90
2023-04-25T19:20:34.048Z,99.90
2023-04-25T19:23:01.626Z,99.90
2023-04-25T19:25:28.524Z,99.90
2023-04-25T19:27:55.650Z,99.90
2023-04-25T19:30:23.101Z,99.90
2023-04-25T19:32:50.065Z,99.90
2023-04-25T19:35:17.160Z,99.90
2023-04-25T19:37:46.910Z,99.90
2023-04-25T19:40:14.609Z,99.90
2023-04-25T19:42:41.699Z,99.90
2023-04-25T19:45:10.277Z,99.90
2023-04-25T19:47:40.391Z,99.90
2023-04-25T19:50:08.591Z,99.90
2023-04-25T19:52:37.134Z,99.90
2023-04-25T19:55:04.997Z,99.90
2023-04-25T19:57:33.537Z,99.90
2023-04-25T20:00:01.860Z,99.90
2023-04-25T20:02:29.033Z,99.90
2023-04-25T20:04:56.419Z,99.90
2023-04-25T20:07:24.441Z,99.90
2023-04-25T20:09:51.550Z,99.90
2023-04-25T20:12:18.466Z,99.90
2023-04-25T20:14:45.602Z,99.90
2023-04-25T20:17:12.819Z,99.90
2023-04-25T20:19:39.970Z,99.90
2023-04-25T20:22:06.961Z,99.90
2023-04-25T20:24:34.098Z,99.90
2023-04-25T20:27:01.163Z,99.90
2023-04-25T20:29:27.934Z,99.90
2023-04-25T20:31:55.130Z,99.90
2023-04-25T20:34:22.751Z,99.90
2023-04-25T20:36:50.067Z,99.90
2023-04-25T20:39:17.275Z,99.90
2023-04-25T20:41:47.446Z,99.90
2023-04-25T20:44:14.507Z,99.90
2023-04-25T20:46:41.702Z,99.90
2023-04-25T20:49:08.739Z,99.90
2023-04-25T20:51:36.890Z,99.90
2023-04-25T20:54:04.087Z,99.90
2023-04-25T20:56:31.229Z,99.90
2023-04-25T20:58:58.343Z,99.90
2023-04-25T21:01:25.387Z,99.90
2023-04-25T21:03:52.899Z,99.90
2023-04-25T21:06:20.160Z,99.90
2023-04-25T21:08:47.290Z,99.90
2023-04-25T21:11:14.577Z,99.90
2023-04-25T21:13:41.568Z,99.90
2023-04-25T21:16:08.677Z,99.90
2023-04-25T21:18:35.722Z,99.90
2023-04-25T21:21:04.204Z,99.90
2023-04-25T21:23:31.828Z,99.90
2023-04-25T21:25:58.879Z,99.90
2023-04-25T21:28:26.008Z,99.90
2023-04-25T21:30:53.177Z,99.90
2023-04-25T21:33:20.013Z,99.90
2023-04-25T21:35:47.545Z,99.90
2023-04-25T21:38:15.581Z,99.90
2023-04-25T21:40:42.548Z,99.90
2023-04-25T21:43:09.582Z,99.90
2023-04-25T21:45:47.092Z,99.90
2023-04-25T21:48:23.604Z,99.90
2023-04-25T21:50:50.696Z,99.90
2023-04-25T21:53:18.487Z,99.90
2023-04-25T21:55:45.558Z,99.90
2023-04-25T21:58:12.707Z,99.90
2023-04-25T22:00:39.607Z,99.90
2023-04-25T22:03:07.025Z,99.90
2023-04-25T22:05:34.897Z,99.90
2023-04-25T22:08:03.383Z,99.90
2023-04-25T22:10:30.288Z,99.90
2023-04-25T22:12:58.335Z,99.90
2023-04-25T22:15:25.539Z,99.90
2023-04-25T22:17:56.619Z,99.90
2023-04-25T22:20:26.532Z,99.90
2023-04-25T22:22:55.427Z,99.90
2023-04-25T22:25:22.674Z,99.90
2023-04-25T22:27:51.344Z,99.90
2023-04-25T22:30:18.445Z,99.90
2023-04-25T22:32:45.341Z,99.90
2023-04-25T22:35:13.858Z,99.90
2023-04-25T22:37:41.728Z,99.90
2023-04-25T22:40:09.321Z,99.90
2023-04-25T22:42:39.943Z,99.90
2023-04-25T22:45:08.358Z,99.90
2023-04-25T22:47:38.893Z,99.90
2023-04-25T22:50:07.705Z,99.90
2023-04-25T22:52:34.938Z,99.90
2023-04-25T22:55:03.286Z,99.90
2023-04-25T22:57:30.415Z,99.90
2023-04-25T22:59:57.511Z,99.90
2023-04-25T23:02:27.782Z,99.90
2023-04-25T23:04:55.037Z,99.90
2023-04-25T23:07:22.064Z,99.90
2023-04-25T23:09:49.323Z,99.90
2023-04-25T23:12:19.361Z,99.90
2023-04-25T23:14:53.577Z,99.90
2023-04-25T23:17:20.622Z,99.90
2023-04-25T23:19:48.286Z,99.90
2023-04-25T23:22:15.316Z,99.90
2023-04-25T23:24:42.356Z,99.90
2023-04-25T23:27:09.371Z,99.90
2023-04-25T23:29:36.355Z,99.90
2023-04-25T23:32:04.138Z,99.90
2023-04-25T23:34:32.771Z,99.90
2023-04-25T23:37:01.428Z,99.90
2023-04-25T23:39:28.959Z,99.90
2023-04-25T23:41:59.079Z,99.90
2023-04-25T23:44:26.106Z,99.90
2023-04-25T23:46:53.126Z,99.90
2023-04-25T23:49:20.953Z,99.90
2023-04-25T23:51:48.147Z,99.90
2023-04-25T23:54:15.401Z,99.90
2023-04-25T23:56:42.564Z,99.90
2023-04-25T23:59:09.561Z,99.90
